sensor_id;sensor_type;location;lat;lon;timestamp;pressure;altitude;pressure_sealevel;temperature;humidity
60244;BME280;46106;51.468;5.814;2023-12-28T00:01:22;100619.44;;;9.42;100.00
60244;BME280;46106;51.468;5.814;2023-12-28T00:03:47;100625.50;;;9.45;100.00
60244;BME280;46106;51.468;5.814;2023-12-28T00:06:13;100630.63;;;9.50;100.00
60244;BME280;46106;51.468;5.814;2023-12-28T00:08:39;100638.34;;;9.56;100.00
60244;BME280;46106;51.468;5.814;2023-12-28T00:11:04;100624.69;;;9.56;100.00
60244;BME280;46106;51.468;5.814;2023-12-28T00:13:29;100643.19;;;9.64;100.00
60244;BME280;46106;51.468;5.814;2023-12-28T00:15:55;100641.94;;;9.56;100.00
60244;BME280;46106;51.468;5.814;2023-12-28T00:18:20;100639.22;;;9.56;100.00
60244;BME280;46106;51.468;5.814;2023-12-28T00:20:46;100643.03;;;9.54;100.00
60244;BME280;46106;51.468;5.814;2023-12-28T00:23:11;100638.78;;;9.38;100.00
60244;BME280;46106;51.468;5.814;2023-12-28T00:25:36;100663.03;;;9.43;100.00
60244;BME280;46106;51.468;5.814;2023-12-28T00:28:02;100655.97;;;9.52;100.00
60244;BME280;46106;51.468;5.814;2023-12-28T00:30:27;100658.94;;;9.49;100.00
60244;BME280;46106;51.468;5.814;2023-12-28T00:32:53;100658.69;;;9.52;100.00
60244;BME280;46106;51.468;5.814;2023-12-28T00:35:19;100664.16;;;9.52;100.00
60244;BME280;46106;51.468;5.814;2023-12-28T00:37:45;100663.81;;;9.56;100.00
60244;BME280;46106;51.468;5.814;2023-12-28T00:40:10;100657.97;;;9.50;100.00
60244;BME280;46106;51.468;5.814;2023-12-28T00:42:35;100675.84;;;9.54;100.00
60244;BME280;46106;51.468;5.814;2023-12-28T00:45:01;100673.72;;;9.46;100.00
60244;BME280;46106;51.468;5.814;2023-12-28T00:47:27;100680.91;;;9.47;100.00
60244;BME280;46106;51.468;5.814;2023-12-28T00:49:53;100675.56;;;9.46;100.00
60244;BME280;46106;51.468;5.814;2023-12-28T00:52:18;100679.81;;;9.50;100.00
60244;BME280;46106;51.468;5.814;2023-12-28T00:54:44;100679.19;;;9.46;100.00
60244;BME280;46106;51.468;5.814;2023-12-28T00:57:09;100686.66;;;9.55;100.00
60244;BME280;46106;51.468;5.814;2023-12-28T00:59:34;100678.81;;;9.51;100.00
60244;BME280;46106;51.468;5.814;2023-12-28T01:02:00;100669.59;;;9.41;100.00
60244;BME280;46106;51.468;5.814;2023-12-28T01:04:25;100691.09;;;9.45;100.00
60244;BME280;46106;51.468;5.814;2023-12-28T01:06:52;100673.06;;;9.43;100.00
60244;BME280;46106;51.468;5.814;2023-12-28T01:09:17;100675.69;;;9.44;100.00
60244;BME280;46106;51.468;5.814;2023-12-28T01:11:42;100681.16;;;9.44;100.00
60244;BME280;46106;51.468;5.814;2023-12-28T01:14:08;100685.47;;;9.35;100.00
60244;BME280;46106;51.468;5.814;2023-12-28T01:16:33;100685.25;;;9.38;100.00
60244;BME280;46106;51.468;5.814;2023-12-28T01:18:59;100691.44;;;9.41;100.00
60244;BME280;46106;51.468;5.814;2023-12-28T01:21:24;100704.03;;;9.43;100.00
60244;BME280;46106;51.468;5.814;2023-12-28T01:23:51;100697.66;;;9.43;100.00
60244;BME280;46106;51.468;5.814;2023-12-28T01:26:16;100700.94;;;9.48;100.00
60244;BME280;46106;51.468;5.814;2023-12-28T01:28:45;100695.59;;;9.46;100.00
60244;BME280;46106;51.468;5.814;2023-12-28T01:31:10;100711.09;;;9.46;100.00
60244;BME280;46106;51.468;5.814;2023-12-28T01:33:35;100703.66;;;9.48;100.00
60244;BME280;46106;51.468;5.814;2023-12-28T01:36:01;100709.66;;;9.53;100.00
60244;BME280;46106;51.468;5.814;2023-12-28T01:38:27;100713.47;;;9.50;100.00
60244;BME280;46106;51.468;5.814;2023-12-28T01:40:52;100716.31;;;9.49;100.00
60244;BME280;46106;51.468;5.814;2023-12-28T01:43:18;100728.28;;;9.48;100.00
60244;BME280;46106;51.468;5.814;2023-12-28T01:45:44;100721.16;;;9.45;100.00
60244;BME280;46106;51.468;5.814;2023-12-28T01:48:10;100722.13;;;9.44;100.00
60244;BME280;46106;51.468;5.814;2023-12-28T01:50:37;100727.09;;;9.39;100.00
60244;BME280;46106;51.468;5.814;2023-12-28T01:53:03;100721.63;;;9.39;100.00
60244;BME280;46106;51.468;5.814;2023-12-28T01:55:29;100730.84;;;9.38;100.00
60244;BME280;46106;51.468;5.814;2023-12-28T01:57:56;100728.44;;;9.33;100.00
60244;BME280;46106;51.468;5.814;2023-12-28T02:00:22;100720.88;;;9.37;100.00
60244;BME280;46106;51.468;5.814;2023-12-28T02:02:48;100720.88;;;9.37;100.00
60244;BME280;46106;51.468;5.814;2023-12-28T02:05:14;100720.25;;;9.33;100.00
60244;BME280;46106;51.468;5.814;2023-12-28T02:07:40;100725.81;;;9.32;100.00
60244;BME280;46106;51.468;5.814;2023-12-28T02:10:06;100732.38;;;9.29;100.00
60244;BME280;46106;51.468;5.814;2023-12-28T02:12:32;100732.88;;;9.23;100.00
60244;BME280;46106;51.468;5.814;2023-12-28T02:14:58;100733.38;;;9.28;100.00
60244;BME280;46106;51.468;5.814;2023-12-28T02:17:30;100733.63;;;9.25;100.00
60244;BME280;46106;51.468;5.814;2023-12-28T02:19:57;100738.34;;;9.23;100.00
60244;BME280;46106;51.468;5.814;2023-12-28T02:22:24;100720.19;;;9.22;100.00
60244;BME280;46106;51.468;5.814;2023-12-28T02:25:09;100720.53;;;9.17;100.00
60244;BME280;46106;51.468;5.814;2023-12-28T02:27:48;100728.38;;;9.22;100.00
60244;BME280;46106;51.468;5.814;2023-12-28T02:30:19;100725.25;;;9.15;100.00
60244;BME280;46106;51.468;5.814;2023-12-28T02:38:06;100717.81;;;9.17;100.00
60244;BME280;46106;51.468;5.814;2023-12-28T02:40:37;100717.91;;;9.16;100.00
60244;BME280;46106;51.468;5.814;2023-12-28T02:43:05;100713.69;;;9.12;100.00
60244;BME280;46106;51.468;5.814;2023-12-28T02:45:30;100707.84;;;9.16;100.00
60244;BME280;46106;51.468;5.814;2023-12-28T02:47:56;100713.69;;;9.12;100.00
60244;BME280;46106;51.468;5.814;2023-12-28T02:50:21;100712.28;;;9.06;100.00
60244;BME280;46106;51.468;5.814;2023-12-28T02:52:46;100717.38;;;9.11;100.00
60244;BME280;46106;51.468;5.814;2023-12-28T02:55:12;100717.50;;;9.09;100.00
60244;BME280;46106;51.468;5.814;2023-12-28T02:57:37;100711.53;;;9.04;100.00
60244;BME280;46106;51.468;5.814;2023-12-28T03:00:07;100707.66;;;9.07;100.00
60244;BME280;46106;51.468;5.814;2023-12-28T03:02:35;100697.63;;;9.07;100.00
60244;BME280;46106;51.468;5.814;2023-12-28T03:05:01;100692.19;;;9.07;100.00
60244;BME280;46106;51.468;5.814;2023-12-28T03:07:26;100694.78;;;9.09;100.00
60244;BME280;46106;51.468;5.814;2023-12-28T03:09:52;100699.75;;;9.04;100.00
60244;BME280;46106;51.468;5.814;2023-12-28T03:12:17;100704.81;;;9.08;100.00
60244;BME280;46106;51.468;5.814;2023-12-28T03:14:43;100710.66;;;9.04;100.00
60244;BME280;46106;51.468;5.814;2023-12-28T03:17:08;100707.00;;;9.16;100.00
60244;BME280;46106;51.468;5.814;2023-12-28T03:19:36;100712.22;;;9.19;100.00
60244;BME280;46106;51.468;5.814;2023-12-28T03:22:01;100715.34;;;9.26;100.00
60244;BME280;46106;51.468;5.814;2023-12-28T03:24:26;100715.59;;;9.23;100.00
60244;BME280;46106;51.468;5.814;2023-12-28T03:26:52;100714.84;;;9.20;100.00
60244;BME280;46106;51.468;5.814;2023-12-28T03:29:17;100713.09;;;9.19;100.00
60244;BME280;46106;51.468;5.814;2023-12-28T03:31:43;100705.28;;;9.26;100.00
60244;BME280;46106;51.468;5.814;2023-12-28T03:34:08;100712.50;;;9.27;100.00
60244;BME280;46106;51.468;5.814;2023-12-28T03:36:33;100700.53;;;9.17;100.00
60244;BME280;46106;51.468;5.814;2023-12-28T03:38:59;100708.75;;;9.17;100.00
60244;BME280;46106;51.468;5.814;2023-12-28T03:41:24;100698.91;;;9.14;100.00
60244;BME280;46106;51.468;5.814;2023-12-28T03:43:49;100695.09;;;9.17;100.00
60244;BME280;46106;51.468;5.814;2023-12-28T03:46:15;100712.44;;;9.16;100.00
60244;BME280;46106;51.468;5.814;2023-12-28T03:48:40;100711.25;;;9.20;100.00
60244;BME280;46106;51.468;5.814;2023-12-28T03:51:06;100720.00;;;9.12;100.00
60244;BME280;46106;51.468;5.814;2023-12-28T03:53:32;100718.78;;;9.16;100.00
60244;BME280;46106;51.468;5.814;2023-12-28T03:55:59;100722.09;;;9.09;100.00
60244;BME280;46106;51.468;5.814;2023-12-28T03:58:24;100719.31;;;9.22;100.00
60244;BME280;46106;51.468;5.814;2023-12-28T04:00:50;100715.69;;;9.21;100.00
60244;BME280;46106;51.468;5.814;2023-12-28T04:03:15;100717.97;;;9.27;100.00
60244;BME280;46106;51.468;5.814;2023-12-28T04:05:42;100716.09;;;9.28;100.00
60244;BME280;46106;51.468;5.814;2023-12-28T04:08:08;100720.31;;;9.20;100.00
60244;BME280;46106;51.468;5.814;2023-12-28T04:10:33;100716.09;;;9.28;100.00
60244;BME280;46106;51.468;5.814;2023-12-28T04:12:59;100719.22;;;9.23;100.00
60244;BME280;46106;51.468;5.814;2023-12-28T04:15:28;100711.25;;;9.20;100.00
60244;BME280;46106;51.468;5.814;2023-12-28T04:17:54;100726.75;;;9.19;100.00
60244;BME280;46106;51.468;5.814;2023-12-28T04:20:19;100724.13;;;9.18;100.00
60244;BME280;46106;51.468;5.814;2023-12-28T04:22:44;100723.50;;;9.14;100.00
60244;BME280;46106;51.468;5.814;2023-12-28T04:25:10;100721.16;;;9.21;100.00
60244;BME280;46106;51.468;5.814;2023-12-28T04:27:37;100712.34;;;9.17;100.00
60244;BME280;46106;51.468;5.814;2023-12-28T04:30:02;100720.81;;;9.26;100.00
60244;BME280;46106;51.468;5.814;2023-12-28T04:32:30;100715.13;;;9.29;100.00
60244;BME280;46106;51.468;5.814;2023-12-28T04:34:56;100713.47;;;9.26;100.00
60244;BME280;46106;51.468;5.814;2023-12-28T04:37:21;100711.75;;;9.25;100.00
60244;BME280;46106;51.468;5.814;2023-12-28T04:39:47;100698.97;;;9.26;100.00
60244;BME280;46106;51.468;5.814;2023-12-28T04:42:12;100694.00;;;9.31;100.00
60244;BME280;46106;51.468;5.814;2023-12-28T04:44:38;100700.59;;;9.28;100.00
60244;BME280;46106;51.468;5.814;2023-12-28T04:47:04;100693.03;;;9.32;100.00
60244;BME280;46106;51.468;5.814;2023-12-28T04:49:30;100696.56;;;9.21;100.00
60244;BME280;46106;51.468;5.814;2023-12-28T04:51:55;100699.41;;;9.19;100.00
60244;BME280;46106;51.468;5.814;2023-12-28T04:54:22;100702.84;;;9.34;100.00
60244;BME280;46106;51.468;5.814;2023-12-28T04:56:47;100702.63;;;9.37;100.00
60244;BME280;46106;51.468;5.814;2023-12-28T04:59:13;100701.13;;;9.33;100.00
60244;BME280;46106;51.468;5.814;2023-12-28T05:01:42;100706.81;;;9.30;100.00
60244;BME280;46106;51.468;5.814;2023-12-28T05:04:07;100709.84;;;9.38;100.00
60244;BME280;46106;51.468;5.814;2023-12-28T05:06:33;100718.72;;;9.29;100.00
60244;BME280;46106;51.468;5.814;2023-12-28T05:08:58;100726.16;;;9.27;100.00
60244;BME280;46106;51.468;5.814;2023-12-28T05:11:24;100732.91;;;9.34;100.00
60244;BME280;46106;51.468;5.814;2023-12-28T05:13:49;100736.75;;;9.32;100.00
60244;BME280;46106;51.468;5.814;2023-12-28T05:16:14;100744.59;;;9.36;100.00
60244;BME280;46106;51.468;5.814;2023-12-28T05:18:40;100745.47;;;9.37;100.00
60244;BME280;46106;51.468;5.814;2023-12-28T05:21:05;100739.78;;;9.40;100.00
60244;BME280;46106;51.468;5.814;2023-12-28T05:23:31;100757.25;;;9.37;100.00
60244;BME280;46106;51.468;5.814;2023-12-28T05:25:56;100753.56;;;9.38;100.00
60244;BME280;46106;51.468;5.814;2023-12-28T05:28:21;100747.22;;;9.38;100.00
60244;BME280;46106;51.468;5.814;2023-12-28T05:30:47;100751.09;;;9.47;100.00
60244;BME280;46106;51.468;5.814;2023-12-28T05:33:12;100766.75;;;9.45;100.00
60244;BME280;46106;51.468;5.814;2023-12-28T05:35:38;100760.28;;;9.46;100.00
60244;BME280;46106;51.468;5.814;2023-12-28T05:38:03;100760.06;;;9.49;100.00
60244;BME280;46106;51.468;5.814;2023-12-28T05:40:30;100748.94;;;9.39;100.00
60244;BME280;46106;51.468;5.814;2023-12-28T05:42:55;100754.94;;;9.44;100.00
60244;BME280;46106;51.468;5.814;2023-12-28T05:45:20;100756.06;;;9.42;100.00
60244;BME280;46106;51.468;5.814;2023-12-28T05:47:46;100749.69;;;9.41;100.00
60244;BME280;46106;51.468;5.814;2023-12-28T05:50:11;100741.50;;;9.41;100.00
60244;BME280;46106;51.468;5.814;2023-12-28T05:52:37;100743.25;;;9.42;100.00
60244;BME280;46106;51.468;5.814;2023-12-28T05:55:03;100737.28;;;9.37;100.00
60244;BME280;46106;51.468;5.814;2023-12-28T05:57:29;100728.22;;;9.36;100.00
60244;BME280;46106;51.468;5.814;2023-12-28T05:59:56;100729.31;;;9.34;100.00
60244;BME280;46106;51.468;5.814;2023-12-28T06:02:22;100736.41;;;9.36;100.00
60244;BME280;46106;51.468;5.814;2023-12-28T06:04:48;100751.16;;;9.34;100.00
60244;BME280;46106;51.468;5.814;2023-12-28T06:07:13;100738.13;;;9.37;100.00
60244;BME280;46106;51.468;5.814;2023-12-28T06:09:38;100741.88;;;9.36;100.00
60244;BME280;46106;51.468;5.814;2023-12-28T06:12:05;100744.84;;;9.33;100.00
60244;BME280;46106;51.468;5.814;2023-12-28T06:14:30;100743.38;;;9.41;100.00
60244;BME280;46106;51.468;5.814;2023-12-28T06:16:56;100748.84;;;9.41;100.00
60244;BME280;46106;51.468;5.814;2023-12-28T06:19:21;100760.78;;;9.40;100.00
60244;BME280;46106;51.468;5.814;2023-12-28T06:21:48;100761.97;;;9.35;100.00
60244;BME280;46106;51.468;5.814;2023-12-28T06:24:13;100762.31;;;9.31;100.00
60244;BME280;46106;51.468;5.814;2023-12-28T06:26:42;100759.34;;;9.34;100.00
60244;BME280;46106;51.468;5.814;2023-12-28T06:29:09;100778.94;;;9.28;100.00
60244;BME280;46106;51.468;5.814;2023-12-28T06:31:35;100780.59;;;9.30;100.00
60244;BME280;46106;51.468;5.814;2023-12-28T06:34:05;100779.94;;;9.27;100.00
60244;BME280;46106;51.468;5.814;2023-12-28T06:36:31;100784.59;;;9.37;100.00
60244;BME280;46106;51.468;5.814;2023-12-28T06:38:57;100784.59;;;9.37;100.00
60244;BME280;46106;51.468;5.814;2023-12-28T06:41:24;100780.75;;;9.40;100.00
60244;BME280;46106;51.468;5.814;2023-12-28T06:43:50;100777.41;;;9.36;100.00
60244;BME280;46106;51.468;5.814;2023-12-28T06:46:15;100771.22;;;9.46;100.00
60244;BME280;46106;51.468;5.814;2023-12-28T06:48:41;100779.31;;;9.47;100.00
60244;BME280;46106;51.468;5.814;2023-12-28T06:51:07;100778.84;;;9.53;100.00
60244;BME280;46106;51.468;5.814;2023-12-28T06:53:32;100771.72;;;9.51;100.00
60244;BME280;46106;51.468;5.814;2023-12-28T06:55:58;100771.84;;;9.49;100.00
60244;BME280;46106;51.468;5.814;2023-12-28T06:58:23;100776.63;;;9.59;100.00
60244;BME280;46106;51.468;5.814;2023-12-28T07:00:49;100777.47;;;9.48;100.00
60244;BME280;46106;51.468;5.814;2023-12-28T07:03:14;100783.03;;;9.46;100.00
60244;BME280;46106;51.468;5.814;2023-12-28T07:05:40;100791.03;;;9.61;100.00
60244;BME280;46106;51.468;5.814;2023-12-28T07:08:05;100785.78;;;9.82;100.00
60244;BME280;46106;51.468;5.814;2023-12-28T07:10:31;100786.69;;;9.82;100.00
60244;BME280;46106;51.468;5.814;2023-12-28T07:12:56;100778.59;;;9.81;100.00
60244;BME280;46106;51.468;5.814;2023-12-28T07:15:22;100793.13;;;9.81;100.00
60244;BME280;46106;51.468;5.814;2023-12-28T07:17:47;100795.47;;;9.74;100.00
60244;BME280;46106;51.468;5.814;2023-12-28T07:20:13;100792.28;;;9.81;100.00
60244;BME280;46106;51.468;5.814;2023-12-28T07:22:38;100806.19;;;9.78;100.00
60244;BME280;46106;51.468;5.814;2023-12-28T07:25:07;100811.63;;;9.78;100.00
60244;BME280;46106;51.468;5.814;2023-12-28T07:27:33;100808.63;;;9.69;100.00
60244;BME280;46106;51.468;5.814;2023-12-28T07:29:59;100799.41;;;9.70;100.00
60244;BME280;46106;51.468;5.814;2023-12-28T07:32:25;100813.19;;;9.69;100.00
60244;BME280;46106;51.468;5.814;2023-12-28T07:34:54;100812.50;;;9.78;100.00
60244;BME280;46106;51.468;5.814;2023-12-28T07:37:20;100816.59;;;9.72;100.00
60244;BME280;46106;51.468;5.814;2023-12-28T07:39:46;100814.31;;;9.66;100.00
60244;BME280;46106;51.468;5.814;2023-12-28T07:42:12;100825.78;;;9.71;100.00
60244;BME280;46106;51.468;5.814;2023-12-28T07:44:37;100826.47;;;9.62;100.00
60244;BME280;46106;51.468;5.814;2023-12-28T07:47:02;100810.94;;;9.63;100.00
60244;BME280;46106;51.468;5.814;2023-12-28T07:49:30;100825.41;;;9.52;100.00
60244;BME280;46106;51.468;5.814;2023-12-28T07:51:56;100834.59;;;9.51;100.00
60244;BME280;46106;51.468;5.814;2023-12-28T07:54:21;100848.53;;;9.48;100.00
60244;BME280;46106;51.468;5.814;2023-12-28T07:56:46;100850.88;;;9.52;100.00
60244;BME280;46106;51.468;5.814;2023-12-28T07:59:12;100845.78;;;9.48;100.00
60244;BME280;46106;51.468;5.814;2023-12-28T08:01:37;100855.28;;;9.42;100.00
60244;BME280;46106;51.468;5.814;2023-12-28T08:04:03;100855.94;;;9.46;100.00
60244;BME280;46106;51.468;5.814;2023-12-28T08:06:29;100861.28;;;9.47;100.00
60244;BME280;46106;51.468;5.814;2023-12-28T08:08:57;100857.69;;;9.47;100.00
60244;BME280;46106;51.468;5.814;2023-12-28T08:11:24;100861.69;;;9.54;100.00
60244;BME280;46106;51.468;5.814;2023-12-28T08:13:50;100864.91;;;9.48;100.00
60244;BME280;46106;51.468;5.814;2023-12-28T08:16:15;100873.41;;;9.56;100.00
60244;BME280;46106;51.468;5.814;2023-12-28T08:18:40;100860.72;;;9.55;100.00
60244;BME280;46106;51.468;5.814;2023-12-28T08:21:06;100867.56;;;9.61;100.00
60244;BME280;46106;51.468;5.814;2023-12-28T08:23:31;100874.63;;;9.52;100.00
60244;BME280;46106;51.468;5.814;2023-12-28T08:25:57;100873.53;;;9.54;100.00
60244;BME280;46106;51.468;5.814;2023-12-28T08:28:22;100869.91;;;9.54;100.00
60244;BME280;46106;51.468;5.814;2023-12-28T08:30:48;100875.78;;;9.61;100.00
60244;BME280;46106;51.468;5.814;2023-12-28T08:33:14;100867.56;;;9.61;100.00
60244;BME280;46106;51.468;5.814;2023-12-28T08:35:40;100864.84;;;9.61;100.00
60244;BME280;46106;51.468;5.814;2023-12-28T08:38:06;100865.41;;;9.66;100.00
60244;BME280;46106;51.468;5.814;2023-12-28T08:40:32;100864.50;;;9.65;100.00
60244;BME280;46106;51.468;5.814;2023-12-28T08:42:57;100867.66;;;9.72;100.00
60244;BME280;46106;51.468;5.814;2023-12-28T08:45:23;100863.19;;;9.71;100.00
60244;BME280;46106;51.468;5.814;2023-12-28T08:47:48;100872.03;;;9.74;100.00
60244;BME280;46106;51.468;5.814;2023-12-28T08:50:14;100871.00;;;9.75;100.00
60244;BME280;46106;51.468;5.814;2023-12-28T08:52:40;100879.00;;;9.79;100.00
60244;BME280;46106;51.468;5.814;2023-12-28T08:55:06;100877.25;;;9.78;100.00
60244;BME280;46106;51.468;5.814;2023-12-28T08:57:31;100889.19;;;9.77;100.00
60244;BME280;46106;51.468;5.814;2023-12-28T08:59:57;100889.59;;;9.83;100.00
60244;BME280;46106;51.468;5.814;2023-12-28T09:02:27;100889.13;;;9.89;100.00
60244;BME280;46106;51.468;5.814;2023-12-28T09:04:53;100900.06;;;9.89;100.00
60244;BME280;46106;51.468;5.814;2023-12-28T09:07:18;100902.06;;;9.87;100.00
60244;BME280;46106;51.468;5.814;2023-12-28T09:09:45;100886.50;;;9.88;100.00
60244;BME280;46106;51.468;5.814;2023-12-28T09:12:10;100897.34;;;9.89;100.00
60244;BME280;46106;51.468;5.814;2023-12-28T09:14:36;100905.44;;;9.91;100.00
60244;BME280;46106;51.468;5.814;2023-12-28T09:17:01;100904.56;;;9.90;100.00
60244;BME280;46106;51.468;5.814;2023-12-28T09:19:27;100905.66;;;9.88;100.00
60244;BME280;46106;51.468;5.814;2023-12-28T09:21:52;100914.72;;;9.88;100.00
60244;BME280;46106;51.468;5.814;2023-12-28T09:24:17;100911.22;;;9.86;100.00
60244;BME280;46106;51.468;5.814;2023-12-28T09:26:43;100918.34;;;9.89;100.00
60244;BME280;46106;51.468;5.814;2023-12-28T09:29:09;100900.94;;;9.90;100.00
60244;BME280;46106;51.468;5.814;2023-12-28T09:31:34;100923.72;;;9.90;100.00
60244;BME280;46106;51.468;5.814;2023-12-28T09:34:00;100918.88;;;9.94;100.00
60244;BME280;46106;51.468;5.814;2023-12-28T09:36:25;100926.31;;;9.92;100.00
60244;BME280;46106;51.468;5.814;2023-12-28T09:38:51;100916.47;;;9.89;100.00
60244;BME280;46106;51.468;5.814;2023-12-28T09:41:18;100925.31;;;9.93;100.00
60244;BME280;46106;51.468;5.814;2023-12-28T09:43:54;100926.47;;;10.02;100.00
60244;BME280;46106;51.468;5.814;2023-12-28T09:46:20;100925.28;;;10.06;100.00
60244;BME280;46106;51.468;5.814;2023-12-28T09:48:46;100933.59;;;10.04;100.00
60244;BME280;46106;51.468;5.814;2023-12-28T09:51:12;100914.66;;;10.01;100.00
60244;BME280;46106;51.468;5.814;2023-12-28T09:53:38;100923.78;;;10.13;100.00
60244;BME280;46106;51.468;5.814;2023-12-28T09:56:04;100930.81;;;10.17;100.00
60244;BME280;46106;51.468;5.814;2023-12-28T09:58:33;100928.94;;;10.18;100.00
60244;BME280;46106;51.468;5.814;2023-12-28T10:01:00;100936.91;;;10.21;100.00
60244;BME280;46106;51.468;5.814;2023-12-28T10:03:26;100937.66;;;10.23;100.00
60244;BME280;46106;51.468;5.814;2023-12-28T10:05:52;100931.44;;;10.21;100.00
60244;BME280;46106;51.468;5.814;2023-12-28T10:08:17;100931.31;;;10.22;100.00
60244;BME280;46106;51.468;5.814;2023-12-28T10:10:44;100932.97;;;10.25;100.00
60244;BME280;46106;51.468;5.814;2023-12-28T10:13:16;100927.94;;;10.19;100.00
60244;BME280;46106;51.468;5.814;2023-12-28T10:15:43;100944.75;;;10.25;100.00
60244;BME280;46106;51.468;5.814;2023-12-28T10:18:09;100944.53;;;10.28;100.00
60244;BME280;46106;51.468;5.814;2023-12-28T10:20:34;100930.53;;;10.33;100.00
60244;BME280;46106;51.468;5.814;2023-12-28T10:23:00;100936.88;;;10.34;100.00
60244;BME280;46106;51.468;5.814;2023-12-28T10:25:31;100947.72;;;10.35;100.00
60244;BME280;46106;51.468;5.814;2023-12-28T10:27:56;100929.06;;;10.40;100.00
60244;BME280;46106;51.468;5.814;2023-12-28T10:30:22;100932.19;;;10.47;100.00
60244;BME280;46106;51.468;5.814;2023-12-28T10:32:48;100939.81;;;10.55;100.00
60244;BME280;46106;51.468;5.814;2023-12-28T10:35:13;100937.81;;;10.57;100.00
60244;BME280;46106;51.468;5.814;2023-12-28T10:37:43;100940.44;;;10.58;100.00
60244;BME280;46106;51.468;5.814;2023-12-28T10:40:13;100934.63;;;10.63;100.00
60244;BME280;46106;51.468;5.814;2023-12-28T10:43:02;100936.59;;;10.61;100.00
60244;BME280;46106;51.468;5.814;2023-12-28T10:45:32;100924.66;;;10.62;100.00
60244;BME280;46106;51.468;5.814;2023-12-28T10:48:12;100932.50;;;10.66;100.00
60244;BME280;46106;51.468;5.814;2023-12-28T10:50:43;100930.34;;;10.59;100.00
60244;BME280;46106;51.468;5.814;2023-12-28T10:53:21;100927.25;;;10.63;100.00
60244;BME280;46106;51.468;5.814;2023-12-28T11:01:07;100918.56;;;10.70;100.00
60244;BME280;46106;51.468;5.814;2023-12-28T11:03:37;100923.19;;;10.69;100.00
60244;BME280;46106;51.468;5.814;2023-12-28T11:06:04;100919.19;;;10.73;100.00
60244;BME280;46106;51.468;5.814;2023-12-28T11:08:32;100926.81;;;10.81;100.00
60244;BME280;46106;51.468;5.814;2023-12-28T11:10:59;100927.44;;;10.84;100.00
60244;BME280;46106;51.468;5.814;2023-12-28T11:13:28;100919.72;;;10.90;100.00
60244;BME280;46106;51.468;5.814;2023-12-28T11:15:56;100911.28;;;10.93;100.00
60244;BME280;46106;51.468;5.814;2023-12-28T11:18:22;100905.16;;;10.89;100.00
60244;BME280;46106;51.468;5.814;2023-12-28T11:20:49;100910.16;;;10.84;100.00
60244;BME280;46106;51.468;5.814;2023-12-28T11:23:16;100898.03;;;10.75;100.00
60244;BME280;46106;51.468;5.814;2023-12-28T11:25:42;100896.44;;;10.73;100.00
60244;BME280;46106;51.468;5.814;2023-12-28T11:28:11;100894.44;;;10.75;100.00
60244;BME280;46106;51.468;5.814;2023-12-28T11:30:37;100903.75;;;10.72;100.00
60244;BME280;46106;51.468;5.814;2023-12-28T11:33:04;100902.53;;;10.76;100.00
60244;BME280;46106;51.468;5.814;2023-12-28T11:35:40;100890.84;;;10.74;100.00
60244;BME280;46106;51.468;5.814;2023-12-28T11:38:10;100896.19;;;10.76;100.00
60244;BME280;46106;51.468;5.814;2023-12-28T11:40:40;100893.69;;;10.73;100.00
60244;BME280;46106;51.468;5.814;2023-12-28T11:43:17;100884.47;;;10.74;100.00
60244;BME280;46106;51.468;5.814;2023-12-28T11:46:10;100883.25;;;10.78;100.00
60244;BME280;46106;51.468;5.814;2023-12-28T11:48:37;100883.34;;;10.76;100.00
60244;BME280;46106;51.468;5.814;2023-12-28T11:51:02;100879.75;;;10.76;100.00
60244;BME280;46106;51.468;5.814;2023-12-28T11:53:28;100881.47;;;10.77;100.00
60244;BME280;46106;51.468;5.814;2023-12-28T11:55:59;100885.75;;;10.81;100.00
60244;BME280;46106;51.468;5.814;2023-12-28T11:58:28;100869.53;;;10.78;100.00
60244;BME280;46106;51.468;5.814;2023-12-28T12:00:54;100875.41;;;10.84;100.00
60244;BME280;46106;51.468;5.814;2023-12-28T12:03:19;100869.81;;;10.86;100.00
60244;BME280;46106;51.468;5.814;2023-12-28T12:05:45;100867.19;;;10.84;100.00
60244;BME280;46106;51.468;5.814;2023-12-28T12:08:10;100860.84;;;10.84;100.00
60244;BME280;46106;51.468;5.814;2023-12-28T12:10:40;100850.63;;;10.86;100.00
60244;BME280;46106;51.468;5.814;2023-12-28T12:13:06;100861.72;;;10.84;100.00
60244;BME280;46106;51.468;5.814;2023-12-28T12:15:31;100859.81;;;10.85;100.00
60244;BME280;46106;51.468;5.814;2023-12-28T12:17:57;100855.25;;;10.85;100.00
60244;BME280;46106;51.468;5.814;2023-12-28T12:20:22;100856.97;;;10.87;100.00
60244;BME280;46106;51.468;5.814;2023-12-28T12:22:48;100849.75;;;10.85;100.00
60244;BME280;46106;51.468;5.814;2023-12-28T12:25:14;100850.75;;;10.84;100.00
60244;BME280;46106;51.468;5.814;2023-12-28T12:27:41;100856.09;;;10.86;100.00
60244;BME280;46106;51.468;5.814;2023-12-28T12:30:07;100843.63;;;10.82;100.00
60244;BME280;46106;51.468;5.814;2023-12-28T12:32:32;100841.66;;;10.84;100.00
60244;BME280;46106;51.468;5.814;2023-12-28T12:34:59;100845.78;;;10.90;100.00
60244;BME280;46106;51.468;5.814;2023-12-28T12:37:24;100836.94;;;10.86;100.00
60244;BME280;46106;51.468;5.814;2023-12-28T12:39:50;100838.53;;;10.89;100.00
60244;BME280;46106;51.468;5.814;2023-12-28T12:42:16;100842.16;;;10.89;100.00
60244;BME280;46106;51.468;5.814;2023-12-28T12:44:45;100839.44;;;10.89;100.00
60244;BME280;46106;51.468;5.814;2023-12-28T12:47:12;100833.22;;;10.87;100.00
60244;BME280;46106;51.468;5.814;2023-12-28T12:49:38;100832.06;;;10.90;100.00
60244;BME280;46106;51.468;5.814;2023-12-28T12:52:04;100831.34;;;10.88;100.00
60244;BME280;46106;51.468;5.814;2023-12-28T12:54:29;100827.84;;;10.85;100.00